EJU35CM LIMC-EFRO
Flight info
| Callsign | EJU35CM |
|---|---|
| Flight time | N/A |
| Altitude | 32000 |
| Route | SRN DCT ABESI N851 VEDOK/N0441F340 N851 LOKTA/N0430F330 DCT KOMIB DCT EMBOX/N0432F340 M726 ROSOK Q296 NIKDA/N0435F350 DCT NEXIL DCT ELPAX DCT KOGAV DCT BODRI DCT SUTEV DCT NEPIX |
| Aircraft | A21N/M-SDE2E3FGHIJ1RWXY/LB1 |
Departure
| Time | 2026-02-19 15:18 |
|---|---|
| Airport | Milan Malpensa International Airport (LIMC) |
Arrival
| Time | N/A |
|---|---|
| Airport | Rovaniemi Airport (EFRO) |
| Time | Latitude | Longitude | Altitude | Speed | Heading |
|---|---|---|---|---|---|
| 2026-02-19 14:35 | 45.64532 | 8.72350 | 757 ft | 0 kts | 349° |
| 2026-02-19 14:56 | 45.64527 | 8.72351 | 757 ft | 2 kts | 348° |
| 2026-02-19 14:57 | 45.64508 | 8.72357 | 756 ft | 3 kts | 345° |
| 2026-02-19 14:57 | 45.64488 | 8.72366 | 752 ft | 3 kts | 339° |
| 2026-02-19 14:57 | 45.64470 | 8.72378 | 756 ft | 3 kts | 329° |
| 2026-02-19 14:57 | 45.64455 | 8.72394 | 757 ft | 4 kts | 307° |
| 2026-02-19 14:58 | 45.64449 | 8.72413 | 752 ft | 3 kts | 265° |
| 2026-02-19 14:58 | 45.64449 | 8.72419 | 753 ft | 1 kts | 259° |
| 2026-02-19 15:03 | 45.64448 | 8.72410 | 754 ft | 2 kts | 259° |
| 2026-02-19 15:03 | 45.64444 | 8.72385 | 757 ft | 3 kts | 259° |
| 2026-02-19 15:03 | 45.64438 | 8.72342 | 755 ft | 5 kts | 259° |
| 2026-02-19 15:04 | 45.64430 | 8.72283 | 757 ft | 7 kts | 259° |
| 2026-02-19 15:04 | 45.64337 | 8.72240 | 754 ft | 10 kts | 168° |
| 2026-02-19 15:04 | 45.64260 | 8.72262 | 757 ft | 12 kts | 169° |
| 2026-02-19 15:05 | 45.64171 | 8.72286 | 757 ft | 14 kts | 169° |
| 2026-02-19 15:05 | 45.64071 | 8.72313 | 756 ft | 15 kts | 169° |
| 2026-02-19 15:05 | 45.63973 | 8.72339 | 757 ft | 6 kts | 169° |
| 2026-02-19 15:05 | 45.63937 | 8.72384 | 755 ft | 8 kts | 107° |
| 2026-02-19 15:06 | 45.63944 | 8.72472 | 756 ft | 10 kts | 78° |
| 2026-02-19 15:06 | 45.63945 | 8.72556 | 756 ft | 8 kts | 122° |
| 2026-02-19 15:06 | 45.63885 | 8.72584 | 755 ft | 10 kts | 169° |
| 2026-02-19 15:06 | 45.63810 | 8.72605 | 754 ft | 12 kts | 169° |
| 2026-02-19 15:07 | 45.63723 | 8.72629 | 757 ft | 14 kts | 169° |
| 2026-02-19 15:07 | 45.63625 | 8.72656 | 757 ft | 15 kts | 169° |
| 2026-02-19 15:07 | 45.63517 | 8.72686 | 755 ft | 17 kts | 169° |
| 2026-02-19 15:07 | 45.63399 | 8.72718 | 756 ft | 18 kts | 169° |
| 2026-02-19 15:08 | 45.63272 | 8.72753 | 756 ft | 19 kts | 169° |
| 2026-02-19 15:08 | 45.62996 | 8.72829 | 755 ft | 22 kts | 169° |
| 2026-02-19 15:08 | 45.62844 | 8.72871 | 755 ft | 23 kts | 169° |
| 2026-02-19 15:09 | 45.62683 | 8.72915 | 758 ft | 24 kts | 169° |
| 2026-02-19 15:09 | 45.62514 | 8.72961 | 754 ft | 26 kts | 169° |
| 2026-02-19 15:09 | 45.62355 | 8.73004 | 756 ft | 20 kts | 169° |
| 2026-02-19 15:09 | 45.62234 | 8.73037 | 757 ft | 11 kts | 169° |
| 2026-02-19 15:10 | 45.62154 | 8.73059 | 757 ft | 13 kts | 169° |
| 2026-02-19 15:10 | 45.62063 | 8.73085 | 758 ft | 14 kts | 169° |
| 2026-02-19 15:10 | 45.61962 | 8.73113 | 757 ft | 16 kts | 169° |
| 2026-02-19 15:10 | 45.61850 | 8.73145 | 755 ft | 17 kts | 169° |
| 2026-02-19 15:11 | 45.61768 | 8.73170 | 758 ft | 8 kts | 157° |
| 2026-02-19 15:11 | 45.61727 | 8.73232 | 755 ft | 10 kts | 123° |
| 2026-02-19 15:11 | 45.61687 | 8.73320 | 758 ft | 11 kts | 123° |
| 2026-02-19 15:11 | 45.61641 | 8.73419 | 754 ft | 7 kts | 124° |
| 2026-02-19 15:12 | 45.61635 | 8.73430 | 756 ft | 0 kts | 126° |
| 2026-02-19 15:15 | 45.61633 | 8.73435 | 758 ft | 2 kts | 126° |
| 2026-02-19 15:16 | 45.61623 | 8.73455 | 757 ft | 3 kts | 126° |
| 2026-02-19 15:16 | 45.61588 | 8.73543 | 756 ft | 7 kts | 106° |
| 2026-02-19 15:16 | 45.61585 | 8.73620 | 755 ft | 9 kts | 85° |
| 2026-02-19 15:17 | 45.61600 | 8.73706 | 749 ft | 10 kts | 69° |
| 2026-02-19 15:17 | 45.61632 | 8.73734 | 750 ft | 6 kts | 348° |
| 2026-02-19 15:17 | 45.61649 | 8.73729 | 749 ft | 0 kts | 350° |
| 2026-02-19 15:17 | 45.61782 | 8.73696 | 750 ft | 54 kts | 349° |
| 2026-02-19 15:18 | 45.62368 | 8.73532 | 754 ft | 115 kts | 347° |
| 2026-02-19 15:18 | 45.63326 | 8.73272 | 750 ft | 161 kts | 347° |
| 2026-02-19 15:18 | 45.64542 | 8.72947 | 918 ft | 183 kts | 350° |
| 2026-02-19 15:18 | 45.65801 | 8.72694 | 1472 ft | 186 kts | 349° |
| 2026-02-19 15:19 | 45.67096 | 8.72654 | 2147 ft | 185 kts | 8° |
| 2026-02-19 15:19 | 45.68345 | 8.72806 | 2777 ft | 182 kts | 354° |
| 2026-02-19 15:19 | 45.69607 | 8.72694 | 3408 ft | 182 kts | 355° |
| 2026-02-19 15:19 | 45.70879 | 8.72626 | 4019 ft | 188 kts | 356° |
| 2026-02-19 15:20 | 45.72229 | 8.72777 | 4482 ft | 204 kts | 14° |
| 2026-02-19 15:20 | 45.74312 | 8.75822 | 5384 ft | 239 kts | 72° |
| 2026-02-19 15:20 | 45.74637 | 8.78223 | 5881 ft | 254 kts | 82° |
| 2026-02-19 15:21 | 45.74575 | 8.80805 | 6414 ft | 266 kts | 99° |
| 2026-02-19 15:21 | 45.74013 | 8.83358 | 7063 ft | 272 kts | 110° |
| 2026-02-19 15:21 | 45.73119 | 8.85721 | 7729 ft | 277 kts | 124° |
| 2026-02-19 15:21 | 45.71959 | 8.87942 | 8414 ft | 280 kts | 126° |
| 2026-02-19 15:22 | 45.69572 | 8.92449 | 9771 ft | 288 kts | 126° |
| 2026-02-19 15:22 | 45.68371 | 8.94763 | 10380 ft | 292 kts | 125° |
| 2026-02-19 15:22 | 45.67158 | 8.97126 | 10987 ft | 297 kts | 125° |
| 2026-02-19 15:23 | 45.65935 | 8.99522 | 11586 ft | 301 kts | 124° |
| 2026-02-19 15:23 | 45.64876 | 9.02110 | 12175 ft | 303 kts | 108° |
| 2026-02-19 15:23 | 45.64478 | 9.05063 | 12583 ft | 307 kts | 86° |
| 2026-02-19 15:23 | 45.64499 | 9.08148 | 12877 ft | 322 kts | 83° |
| 2026-02-19 15:24 | 45.64675 | 9.18448 | 13886 ft | 362 kts | 85° |
| 2026-02-19 15:24 | 45.64700 | 9.22067 | 14491 ft | 364 kts | 85° |
| 2026-02-19 15:25 | 45.64721 | 9.25692 | 15142 ft | 366 kts | 86° |
| 2026-02-19 15:25 | 45.64736 | 9.29336 | 15779 ft | 367 kts | 86° |
| 2026-02-19 15:25 | 45.64751 | 9.32994 | 16404 ft | 369 kts | 86° |
| 2026-02-19 15:25 | 45.64765 | 9.36664 | 17022 ft | 371 kts | 86° |
| 2026-02-19 15:26 | 45.64779 | 9.40358 | 17712 ft | 373 kts | 86° |
| 2026-02-19 15:26 | 45.64789 | 9.44023 | 18264 ft | 375 kts | 87° |
| 2026-02-19 15:26 | 45.64799 | 9.47759 | 18733 ft | 377 kts | 87° |
| 2026-02-19 15:26 | 45.64810 | 9.51518 | 19172 ft | 379 kts | 87° |
| 2026-02-19 15:27 | 45.64829 | 9.55295 | 19578 ft | 381 kts | 85° |
| 2026-02-19 15:27 | 45.65248 | 9.59021 | 19836 ft | 380 kts | 70° |
| 2026-02-19 15:27 | 45.66308 | 9.62453 | 20158 ft | 378 kts | 56° |
| 2026-02-19 15:27 | 45.67937 | 9.65379 | 20459 ft | 377 kts | 41° |
| 2026-02-19 15:28 | 45.70023 | 9.67639 | 20723 ft | 376 kts | 27° |
| 2026-02-19 15:28 | 45.74943 | 9.69700 | 21190 ft | 374 kts | 0° |
| 2026-02-19 15:28 | 45.77536 | 9.69449 | 21376 ft | 375 kts | 349° |
| 2026-02-19 15:29 | 45.80100 | 9.68704 | 21551 ft | 377 kts | 346° |
| 2026-02-19 15:29 | 45.82656 | 9.67874 | 21752 ft | 378 kts | 347° |
| 2026-02-19 15:29 | 45.85231 | 9.67074 | 21936 ft | 378 kts | 347° |
| 2026-02-19 15:30 | 45.90404 | 9.65536 | 22218 ft | 381 kts | 347° |
| 2026-02-19 15:30 | 45.92997 | 9.64770 | 22346 ft | 382 kts | 347° |
| 2026-02-19 15:30 | 45.95566 | 9.64018 | 22495 ft | 382 kts | 347° |
| 2026-02-19 15:30 | 45.98176 | 9.63256 | 22582 ft | 383 kts | 347° |
| 2026-02-19 15:31 | 46.00797 | 9.62489 | 22596 ft | 386 kts | 347° |
| 2026-02-19 15:31 | 46.06055 | 9.60945 | 22699 ft | 385 kts | 347° |
| 2026-02-19 15:31 | 46.08680 | 9.60172 | 22724 ft | 386 kts | 347° |
| 2026-02-19 15:32 | 46.11315 | 9.59396 | 22700 ft | 386 kts | 347° |
| 2026-02-19 15:32 | 46.16537 | 9.57854 | 22644 ft | 386 kts | 347° |
| 2026-02-19 15:32 | 46.19162 | 9.57081 | 22582 ft | 385 kts | 347° |
| 2026-02-19 15:33 | 46.24401 | 9.55532 | 22453 ft | 383 kts | 347° |
| 2026-02-19 15:33 | 46.27000 | 9.54758 | 22395 ft | 381 kts | 347° |
| 2026-02-19 15:33 | 46.29599 | 9.53983 | 22333 ft | 380 kts | 347° |
| 2026-02-19 15:34 | 46.34719 | 9.52460 | 22189 ft | 377 kts | 347° |
| 2026-02-19 15:34 | 46.37284 | 9.51698 | 22125 ft | 375 kts | 347° |
| 2026-02-19 15:34 | 46.39835 | 9.50942 | 22088 ft | 374 kts | 347° |
| 2026-02-19 15:35 | 46.42380 | 9.50186 | 22078 ft | 372 kts | 347° |
| 2026-02-19 15:35 | 46.44912 | 9.49431 | 22051 ft | 371 kts | 347° |
| 2026-02-19 15:35 | 46.47428 | 9.48678 | 22019 ft | 369 kts | 347° |
| 2026-02-19 15:35 | 46.49944 | 9.47927 | 21990 ft | 368 kts | 347° |
| 2026-02-19 15:36 | 46.52450 | 9.47176 | 21959 ft | 367 kts | 347° |
| 2026-02-19 15:36 | 46.57393 | 9.45691 | 21919 ft | 364 kts | 347° |
| 2026-02-19 15:36 | 46.59866 | 9.44952 | 21900 ft | 363 kts | 348° |
| 2026-02-19 15:37 | 46.62338 | 9.44213 | 21877 ft | 362 kts | 348° |
| 2026-02-19 15:37 | 46.64802 | 9.43471 | 21856 ft | 361 kts | 348° |
| 2026-02-19 15:37 | 46.67260 | 9.42727 | 21882 ft | 360 kts | 348° |
| 2026-02-19 15:37 | 46.69705 | 9.41989 | 21870 ft | 359 kts | 348° |
| 2026-02-19 15:38 | 46.72149 | 9.41251 | 21859 ft | 358 kts | 348° |
| 2026-02-19 15:38 | 46.74581 | 9.40516 | 21856 ft | 356 kts | 348° |
| 2026-02-19 15:38 | 46.76999 | 9.39787 | 21858 ft | 355 kts | 348° |
| 2026-02-19 15:38 | 46.79381 | 9.39067 | 21850 ft | 354 kts | 347° |
| 2026-02-19 15:39 | 46.81791 | 9.38338 | 21840 ft | 353 kts | 347° |
| 2026-02-19 15:39 | 46.84191 | 9.37614 | 21833 ft | 352 kts | 347° |
| 2026-02-19 15:39 | 46.86580 | 9.36890 | 21809 ft | 350 kts | 347° |
| 2026-02-19 15:39 | 46.88965 | 9.36167 | 21796 ft | 349 kts | 347° |
| 2026-02-19 15:40 | 46.91339 | 9.35448 | 21784 ft | 348 kts | 347° |
| 2026-02-19 15:40 | 46.96073 | 9.34007 | 21786 ft | 346 kts | 347° |
| 2026-02-19 15:41 | 47.00744 | 9.32586 | 21765 ft | 344 kts | 347° |
| 2026-02-19 15:41 | 47.03085 | 9.31874 | 21752 ft | 343 kts | 347° |
| 2026-02-19 15:41 | 47.05420 | 9.31162 | 21734 ft | 342 kts | 347° |
| 2026-02-19 15:41 | 47.07751 | 9.30450 | 21722 ft | 342 kts | 347° |
| 2026-02-19 15:42 | 47.10073 | 9.29740 | 21707 ft | 341 kts | 347° |
| 2026-02-19 15:42 | 47.12396 | 9.29029 | 21699 ft | 340 kts | 347° |
| 2026-02-19 15:42 | 47.14713 | 9.28319 | 21694 ft | 339 kts | 347° |
| 2026-02-19 15:42 | 47.17022 | 9.27613 | 21679 ft | 339 kts | 347° |
| 2026-02-19 15:43 | 47.19293 | 9.26916 | 21670 ft | 338 kts | 347° |
| 2026-02-19 15:43 | 47.21593 | 9.26209 | 21653 ft | 337 kts | 347° |
| 2026-02-19 15:43 | 47.23885 | 9.25503 | 21639 ft | 337 kts | 347° |
| 2026-02-19 15:43 | 47.26174 | 9.24797 | 21627 ft | 336 kts | 347° |
| 2026-02-19 15:44 | 47.28463 | 9.24086 | 21616 ft | 335 kts | 347° |
| 2026-02-19 15:44 | 47.32990 | 9.22679 | 21600 ft | 334 kts | 346° |
| 2026-02-19 15:44 | 47.35293 | 9.21970 | 21588 ft | 334 kts | 347° |
| 2026-02-19 15:45 | 47.37537 | 9.21274 | 21580 ft | 333 kts | 347° |
| 2026-02-19 15:45 | 47.39806 | 9.20572 | 21575 ft | 333 kts | 347° |
| 2026-02-19 15:45 | 47.42072 | 9.19878 | 21568 ft | 333 kts | 347° |
| 2026-02-19 15:45 | 47.44335 | 9.19182 | 21559 ft | 332 kts | 347° |
| 2026-02-19 15:46 | 47.46592 | 9.18485 | 21550 ft | 331 kts | 347° |
| 2026-02-19 15:46 | 47.48845 | 9.17787 | 21531 ft | 330 kts | 346° |
| 2026-02-19 15:46 | 47.51085 | 9.17090 | 21525 ft | 329 kts | 346° |
| 2026-02-19 15:46 | 47.53321 | 9.16394 | 21515 ft | 328 kts | 346° |
| 2026-02-19 15:47 | 47.55552 | 9.15701 | 21510 ft | 327 kts | 346° |
| 2026-02-19 15:47 | 47.57747 | 9.15013 | 21503 ft | 326 kts | 346° |
| 2026-02-19 15:47 | 47.59962 | 9.14316 | 21492 ft | 325 kts | 346° |
| 2026-02-19 15:47 | 47.62175 | 9.13621 | 21480 ft | 325 kts | 346° |
| 2026-02-19 15:48 | 47.64382 | 9.12937 | 21467 ft | 324 kts | 346° |
| 2026-02-19 15:48 | 47.68777 | 9.11572 | 21440 ft | 322 kts | 347° |
| 2026-02-19 15:48 | 47.70985 | 9.11015 | 21427 ft | 321 kts | 354° |
| 2026-02-19 15:49 | 47.73213 | 9.11029 | 21415 ft | 320 kts | 4° |
| 2026-02-19 15:49 | 47.75428 | 9.11378 | 21409 ft | 319 kts | 6° |
| 2026-02-19 15:49 | 47.77598 | 9.11763 | 21399 ft | 318 kts | 6° |
| 2026-02-19 15:49 | 47.79793 | 9.12154 | 21392 ft | 317 kts | 6° |
| 2026-02-19 15:50 | 47.81976 | 9.12518 | 21378 ft | 316 kts | 5° |
| 2026-02-19 15:50 | 47.84159 | 9.12873 | 21362 ft | 315 kts | 5° |
| 2026-02-19 15:50 | 47.86331 | 9.13235 | 21346 ft | 314 kts | 6° |
| 2026-02-19 15:50 | 47.88496 | 9.13599 | 21334 ft | 313 kts | 6° |
| 2026-02-19 15:51 | 47.90655 | 9.13962 | 21326 ft | 312 kts | 6° |
| 2026-02-19 15:51 | 47.92813 | 9.14320 | 21315 ft | 311 kts | 6° |
| 2026-02-19 15:51 | 47.94930 | 9.14673 | 21306 ft | 310 kts | 6° |
| 2026-02-19 15:51 | 47.97069 | 9.15029 | 21296 ft | 309 kts | 6° |
| 2026-02-19 15:52 | 47.99203 | 9.15381 | 21289 ft | 307 kts | 6° |
| 2026-02-19 15:52 | 48.03438 | 9.16085 | 21263 ft | 305 kts | 6° |
| 2026-02-19 15:52 | 48.05547 | 9.16428 | 21249 ft | 304 kts | 5° |
| 2026-02-19 15:53 | 48.07643 | 9.16764 | 21242 ft | 303 kts | 6° |
| 2026-02-19 15:53 | 48.09739 | 9.17098 | 21223 ft | 302 kts | 6° |
| 2026-02-19 15:53 | 48.11791 | 9.17430 | 21204 ft | 301 kts | 6° |
| 2026-02-19 15:53 | 48.13867 | 9.17772 | 21186 ft | 299 kts | 6° |
| 2026-02-19 15:54 | 48.15930 | 9.18114 | 21161 ft | 298 kts | 6° |
| 2026-02-19 15:54 | 48.17984 | 9.18457 | 21124 ft | 297 kts | 6° |
| 2026-02-19 15:54 | 48.22080 | 9.19146 | 21020 ft | 296 kts | 6° |
| 2026-02-19 15:55 | 48.24167 | 9.19498 | 21045 ft | 309 kts | 6° |
| 2026-02-19 15:55 | 48.26340 | 9.19865 | 21243 ft | 320 kts | 6° |
| 2026-02-19 15:55 | 48.28583 | 9.20244 | 21517 ft | 328 kts | 6° |
| 2026-02-19 15:55 | 48.30847 | 9.20624 | 21858 ft | 335 kts | 6° |
| 2026-02-19 15:56 | 48.33184 | 9.21018 | 22244 ft | 340 kts | 6° |
| 2026-02-19 15:56 | 48.37945 | 9.21826 | 23080 ft | 348 kts | 6° |
| 2026-02-19 15:56 | 48.40362 | 9.22292 | 23448 ft | 353 kts | 10° |
| 2026-02-19 15:57 | 48.42797 | 9.23110 | 23573 ft | 364 kts | 17° |
| 2026-02-19 15:57 | 48.45121 | 9.24691 | 23688 ft | 373 kts | 34° |
| 2026-02-19 15:57 | 48.49582 | 9.28987 | 23976 ft | 394 kts | 28° |
| 2026-02-19 15:58 | 48.52105 | 9.30748 | 24115 ft | 404 kts | 24° |
| 2026-02-19 15:58 | 48.54728 | 9.32381 | 24336 ft | 412 kts | 22° |
| 2026-02-19 15:58 | 48.57414 | 9.33971 | 24682 ft | 416 kts | 22° |
| 2026-02-19 15:58 | 48.60121 | 9.35551 | 25058 ft | 418 kts | 22° |
| 2026-02-19 15:59 | 48.62842 | 9.37138 | 25424 ft | 421 kts | 22° |
| 2026-02-19 15:59 | 48.65546 | 9.38719 | 25779 ft | 423 kts | 22° |
| 2026-02-19 15:59 | 48.68296 | 9.40325 | 26135 ft | 425 kts | 22° |
| 2026-02-19 15:59 | 48.71061 | 9.41948 | 26471 ft | 428 kts | 23° |
| 2026-02-19 16:00 | 48.73847 | 9.43584 | 26792 ft | 431 kts | 23° |
| 2026-02-19 16:00 | 48.79459 | 9.46893 | 27428 ft | 435 kts | 23° |
| 2026-02-19 16:00 | 48.82287 | 9.48562 | 27744 ft | 437 kts | 24° |
| 2026-02-19 16:01 | 48.85135 | 9.50242 | 28069 ft | 440 kts | 24° |
| 2026-02-19 16:01 | 48.87987 | 9.51928 | 28383 ft | 441 kts | 24° |
| 2026-02-19 16:01 | 48.90859 | 9.53626 | 28688 ft | 444 kts | 24° |
| 2026-02-19 16:01 | 48.93706 | 9.55306 | 28949 ft | 446 kts | 24° |
| 2026-02-19 16:02 | 48.96607 | 9.57014 | 29229 ft | 448 kts | 24° |
| 2026-02-19 16:02 | 48.99519 | 9.58737 | 29499 ft | 451 kts | 24° |
| 2026-02-19 16:02 | 49.05391 | 9.62224 | 30015 ft | 455 kts | 24° |
| 2026-02-19 16:03 | 49.08339 | 9.63999 | 30276 ft | 456 kts | 24° |
| 2026-02-19 16:03 | 49.11291 | 9.65769 | 30585 ft | 456 kts | 24° |
| 2026-02-19 16:03 | 49.14247 | 9.67538 | 30883 ft | 456 kts | 24° |
| 2026-02-19 16:03 | 49.17195 | 9.69293 | 31183 ft | 455 kts | 23° |
| 2026-02-19 16:04 | 49.20107 | 9.71046 | 31474 ft | 455 kts | 23° |
| 2026-02-19 16:04 | 49.26003 | 9.74574 | 31730 ft | 455 kts | 22° |
| 2026-02-19 16:05 | 49.31887 | 9.78099 | 31709 ft | 454 kts | 23° |
| 2026-02-19 16:05 | 49.37774 | 9.81687 | 31713 ft | 455 kts | 23° |
| 2026-02-19 16:05 | 49.40723 | 9.83479 | 31905 ft | 456 kts | 23° |
| 2026-02-19 16:06 | 49.43625 | 9.85244 | 32205 ft | 455 kts | 22° |
| 2026-02-19 16:06 | 49.46568 | 9.87032 | 32480 ft | 455 kts | 22° |
| 2026-02-19 16:06 | 49.49508 | 9.88818 | 32716 ft | 455 kts | 22° |
| 2026-02-19 16:06 | 49.52459 | 9.90621 | 32925 ft | 456 kts | 22° |
| 2026-02-19 16:07 | 49.55409 | 9.92412 | 33125 ft | 457 kts | 22° |
| 2026-02-19 16:07 | 49.58362 | 9.94202 | 33347 ft | 457 kts | 22° |
| 2026-02-19 16:07 | 49.61321 | 9.96002 | 33552 ft | 457 kts | 22° |
| 2026-02-19 16:07 | 49.64283 | 9.97818 | 33731 ft | 459 kts | 22° |
| 2026-02-19 16:08 | 49.67250 | 9.99644 | 33760 ft | 459 kts | 22° |
| 2026-02-19 16:08 | 49.76120 | 10.05068 | 33736 ft | 459 kts | 21° |
| 2026-02-19 16:09 | 49.82073 | 10.08660 | 33762 ft | 459 kts | 21° |
| 2026-02-19 16:09 | 49.88010 | 10.12298 | 33761 ft | 459 kts | 22° |
| 2026-02-19 16:10 | 49.93900 | 10.15937 | 33772 ft | 458 kts | 22° |
| 2026-02-19 16:10 | 49.99827 | 10.19607 | 33768 ft | 461 kts | 22° |
| 2026-02-19 16:11 | 50.05783 | 10.23304 | 33779 ft | 461 kts | 22° |
| 2026-02-19 16:11 | 50.11821 | 10.26691 | 33776 ft | 461 kts | 19° |